Time;durP1;ratioP1;P1;durP2;ratioP2;P2;SDS_P1;SDS_P2;PMS_P1;PMS_P2;Temp;Humidity;BMP_temperature;BMP_pressure;BME280_temperature;BME280_humidity;BME280_pressure;Samples;Min_cycle;Max_cycle;Signal;HPM_P1;HPM_P2
2024/03/17 00:02:19;;;;;;;45.70;27.00;;;;;;;6.49;100.00;100556.83;105913;1268;72838;-56
2024/03/17 00:04:46;;;;;;;43.30;28.40;;;;;;;6.50;100.00;100554.33;106055;1261;66474;-58
2024/03/17 00:07:14;;;;;;;41.10;27.20;;;;;;;6.50;100.00;100556.28;105884;1260;73131;-57
2024/03/17 00:09:41;;;;;;;42.30;27.80;;;;;;;6.49;100.00;100554.86;105994;1264;60438;-57
2024/03/17 00:12:08;;;;;;;39.50;26.70;;;;;;;6.48;100.00;100552.21;105893;1257;61339;-58
2024/03/17 00:14:37;;;;;;;41.90;24.90;;;;;;;6.48;100.00;100554.71;106022;1266;73787;-57
2024/03/17 00:17:04;;;;;;;36.00;24.70;;;;;;;6.46;100.00;100550.80;106628;1261;65863;-57
2024/03/17 00:19:31;;;;;;;36.00;25.70;;;;;;;6.46;100.00;100548.50;106017;1267;72705;-56
2024/03/17 00:21:59;;;;;;;38.50;24.10;;;;;;;6.47;100.00;100545.99;106540;1260;64034;-57
2024/03/17 00:24:33;;;;;;;39.30;25.40;;;;;;;6.48;100.00;100543.84;105868;1263;61335;-56
2024/03/17 00:27:01;;;;;;;41.50;25.00;;;;;;;6.48;100.00;100541.34;106463;1260;74360;-58
2024/03/17 00:29:28;;;;;;;34.80;24.30;;;;;;;6.49;100.00;100540.27;105781;1258;67196;-58
2024/03/17 00:31:56;;;;;;;39.60;25.30;;;;;;;6.48;100.00;100537.05;105825;1263;71813;-58
2024/03/17 00:34:23;;;;;;;40.40;25.50;;;;;;;6.48;100.00;100535.27;108397;1257;60482;-57
2024/03/17 00:36:51;;;;;;;43.90;27.50;;;;;;;6.48;100.00;100532.06;105911;1264;59209;-58
2024/03/17 00:39:19;;;;;;;37.50;24.70;;;;;;;6.47;100.00;100528.70;105940;1270;73987;-57
2024/03/17 00:41:46;;;;;;;38.20;25.00;;;;;;;6.45;100.00;100526.77;106825;1257;67213;-57
2024/03/17 00:44:13;;;;;;;39.20;24.40;;;;;;;6.44;100.00;100519.31;105891;1261;72732;-58
2024/03/17 00:46:42;;;;;;;35.70;22.40;;;;;;;6.43;100.00;100516.66;106021;1258;60536;-58
2024/03/17 00:49:10;;;;;;;37.40;24.80;;;;;;;6.43;100.00;100517.56;105958;1259;61349;-58
2024/03/17 00:51:37;;;;;;;31.90;22.60;;;;;;;6.43;100.00;100515.41;106101;1261;73928;-57
2024/03/17 00:54:04;;;;;;;35.40;24.10;;;;;;;6.44;100.00;100511.65;105959;1257;67003;-59
2024/03/17 00:56:32;;;;;;;33.10;24.10;;;;;;;6.44;100.00;100509.87;105839;1257;72956;-57
2024/03/17 00:58:59;;;;;;;36.10;24.60;;;;;;;6.44;100.00;100508.80;105844;1269;60539;-58
2024/03/17 01:01:26;;;;;;;32.60;22.50;;;;;;;6.44;100.00;100505.77;105917;1270;61338;-58
2024/03/17 01:03:55;;;;;;;34.30;24.00;;;;;;;6.43;100.00;100497.94;105908;1269;74980;-58
2024/03/17 01:06:22;;;;;;;34.70;24.40;;;;;;;6.41;100.00;100496.73;106049;1263;67191;-58
2024/03/17 01:08:51;;;;;;;35.50;24.30;;;;;;;6.41;100.00;100495.65;105932;1262;72746;-58
2024/03/17 01:11:18;;;;;;;36.50;23.80;;;;;;;6.40;100.00;100496.02;105896;1261;61902;-56
2024/03/17 01:13:46;;;;;;;34.40;22.70;;;;;;;6.39;100.00;100492.66;105864;1260;60522;-58
2024/03/17 01:16:13;;;;;;;32.10;23.00;;;;;;;6.38;100.00;100489.48;105919;1260;74784;-58
2024/03/17 01:18:42;;;;;;;35.40;23.20;;;;;;;6.38;100.00;100490.35;105971;1257;67035;-57
2024/03/17 01:21:10;;;;;;;35.20;23.90;;;;;;;6.39;100.00;100492.30;106410;1260;71442;-57
2024/03/17 01:23:37;;;;;;;35.40;23.20;;;;;;;6.40;100.00;100487.66;106196;1261;61742;-58
2024/03/17 01:26:04;;;;;;;35.10;23.10;;;;;;;6.40;100.00;100485.50;105863;1264;60473;-57
2024/03/17 01:28:32;;;;;;;32.30;23.60;;;;;;;6.41;100.00;100483.35;105872;1260;74105;-57
2024/03/17 01:30:59;;;;;;;31.70;24.20;;;;;;;6.41;100.00;100487.47;105964;1256;66051;-56
2024/03/17 01:33:26;;;;;;;40.70;25.50;;;;;;;6.40;100.00;100483.55;105856;1271;72723;-58
2024/03/17 01:35:53;;;;;;;35.80;22.10;;;;;;;6.40;100.00;100483.02;105904;1258;61671;-58
2024/03/17 01:38:21;;;;;;;29.10;20.60;;;;;;;6.39;100.00;100481.60;105872;1257;61197;-57
2024/03/17 01:40:48;;;;;;;32.50;21.90;;;;;;;6.39;100.00;100479.65;106071;1260;74519;-57
2024/03/17 01:43:15;;;;;;;32.80;21.70;;;;;;;6.39;100.00;100479.13;105906;1262;65952;-59
2024/03/17 01:45:43;;;;;;;34.50;22.00;;;;;;;6.40;100.00;100482.13;105848;1270;71752;-59
2024/03/17 01:48:19;;;;;;;33.60;21.40;;;;;;;6.40;100.00;100479.80;105795;1273;62098;-57
2024/03/17 01:50:48;;;;;;;30.50;22.40;;;;;;;6.40;100.00;100478.20;106117;1260;61240;-57
2024/03/17 01:53:15;;;;;;;33.60;24.30;;;;;;;6.40;100.00;100476.06;106010;1257;75572;-58
2024/03/17 01:55:44;;;;;;;36.30;24.80;;;;;;;6.40;100.00;100477.48;105870;1257;67199;-56
2024/03/17 01:58:11;;;;;;;31.90;22.30;;;;;;;6.40;100.00;100477.30;105876;1260;71484;-57
2024/03/17 02:00:39;;;;;;;33.80;23.10;;;;;;;6.39;100.00;100473.23;105834;1257;61424;-57
2024/03/17 02:03:08;;;;;;;30.60;22.60;;;;;;;6.38;100.00;100470.40;106233;1257;62126;-57
2024/03/17 02:05:37;;;;;;;27.80;20.80;;;;;;;6.38;100.00;100464.55;105950;1260;74708;-58
2024/03/17 02:08:07;;;;;;;31.00;20.70;;;;;;;6.38;100.00;100463.27;105990;1267;67274;-57
2024/03/17 02:10:34;;;;;;;38.20;20.80;;;;;;;6.39;100.00;100460.58;105990;1254;72713;-58
2024/03/17 02:13:03;;;;;;;34.60;20.70;;;;;;;6.40;100.00;100457.16;105948;1258;61320;-57
2024/03/17 02:15:30;;;;;;;29.80;21.80;;;;;;;6.41;100.00;100455.19;106149;1258;61035;-57
2024/03/17 02:17:58;;;;;;;25.00;19.10;;;;;;;6.41;100.00;100459.29;106893;1254;73446;-58
2024/03/17 02:20:55;;;;;;;31.30;22.40;;;;;;;6.40;100.00;100453.95;106103;1257;67448;-57
2024/03/17 02:23:12;;;;;;;30.70;19.90;;;;;;;6.39;100.00;100457.52;106063;1258;72618;-57
2024/03/17 02:25:40;;;;;;;30.50;20.30;;;;;;;6.40;100.00;100456.81;106080;1258;61744;-57
2024/03/17 02:28:07;;;;;;;29.30;20.70;;;;;;;6.39;100.00;100454.86;106129;1257;61200;-58
2024/03/17 02:30:35;;;;;;;26.50;18.60;;;;;;;6.38;100.00;100458.61;106146;1253;74561;-59
2024/03/17 02:33:02;;;;;;;27.60;20.30;;;;;;;6.38;100.00;100463.45;106244;1258;67126;-57
2024/03/17 02:35:30;;;;;;;28.50;19.80;;;;;;;6.38;100.00;100460.77;106222;1254;72726;-58
2024/03/17 02:37:57;;;;;;;29.70;18.90;;;;;;;6.39;100.00;100456.48;106044;1255;61276;-59
2024/03/17 02:40:24;;;;;;;26.80;20.50;;;;;;;6.39;100.00;100455.57;106125;1257;62671;-59
2024/03/17 02:42:51;;;;;;;29.60;20.90;;;;;;;6.40;100.00;100453.23;106064;1254;73470;-58
2024/03/17 02:45:18;;;;;;;32.20;21.10;;;;;;;6.41;100.00;100449.30;106098;1258;67709;-58
2024/03/17 02:47:45;;;;;;;32.50;20.60;;;;;;;6.41;100.00;100446.98;106076;1257;71245;-59
2024/03/17 02:50:13;;;;;;;28.90;20.30;;;;;;;6.41;100.00;100447.34;106086;1269;61746;-58
2024/03/17 02:52:40;;;;;;;29.30;20.00;;;;;;;6.41;100.00;100445.55;106096;1259;61180;-59
2024/03/17 02:55:07;;;;;;;31.00;19.20;;;;;;;6.41;100.00;100443.42;106086;1254;73269;-59
2024/03/17 02:57:35;;;;;;;25.60;18.80;;;;;;;6.40;100.00;100440.58;106102;1255;65219;-58
2024/03/17 03:00:04;;;;;;;28.40;20.30;;;;;;;6.40;100.00;100440.40;106163;1257;72735;-58
2024/03/17 03:02:32;;;;;;;26.10;18.90;;;;;;;6.41;100.00;100437.71;106053;1260;62785;-59
2024/03/17 03:04:59;;;;;;;26.10;17.30;;;;;;;6.42;100.00;100435.39;106094;1266;61867;-60
2024/03/17 03:07:26;;;;;;;22.10;16.60;;;;;;;6.42;100.00;100435.02;106089;1257;74703;-57
2024/03/17 03:09:54;;;;;;;26.60;19.90;;;;;;;6.43;100.00;100435.18;106066;1257;68005;-58
2024/03/17 03:12:21;;;;;;;29.00;18.80;;;;;;;6.43;100.00;100436.61;106096;1258;73179;-58
2024/03/17 03:14:48;;;;;;;24.60;18.40;;;;;;;6.42;100.00;100431.63;106084;1254;62380;-60
2024/03/17 03:17:15;;;;;;;28.70;18.60;;;;;;;6.42;100.00;100431.27;106104;1258;62242;-58
2024/03/17 03:19:42;;;;;;;26.90;18.80;;;;;;;6.41;100.00;100432.18;106073;1257;74134;-59
2024/03/17 03:22:09;;;;;;;23.70;18.10;;;;;;;6.40;100.00;100432.02;106086;1257;66363;-58
2024/03/17 03:24:36;;;;;;;24.30;18.50;;;;;;;6.39;100.00;100433.47;106046;1254;73613;-59
2024/03/17 03:27:04;;;;;;;25.40;18.70;;;;;;;6.37;100.00;100429.25;106062;1257;62289;-58
2024/03/17 03:29:31;;;;;;;26.40;18.30;;;;;;;6.35;100.00;100427.14;106063;1254;61119;-59
2024/03/17 03:31:58;;;;;;;24.40;16.80;;;;;;;6.33;100.00;100423.62;106228;1252;73074;-58
2024/03/17 03:34:26;;;;;;;24.10;18.10;;;;;;;6.32;100.00;100421.85;106135;1253;67381;-59
2024/03/17 03:36:53;;;;;;;21.60;16.70;;;;;;;6.31;100.00;100422.41;109063;1253;71390;-59
2024/03/17 03:39:20;;;;;;;24.40;16.80;;;;;;;6.30;100.00;100424.94;109079;1253;62066;-59
2024/03/17 03:41:48;;;;;;;26.30;16.90;;;;;;;6.27;100.00;100421.61;109228;1253;61332;-58
2024/03/17 03:44:15;;;;;;;26.80;18.60;;;;;;;6.24;100.00;100417.02;109077;1254;75107;-58
2024/03/17 03:46:43;;;;;;;22.50;16.80;;;;;;;6.23;100.00;100416.88;109070;1253;66190;-59
2024/03/17 03:49:10;;;;;;;24.40;19.30;;;;;;;6.21;100.00;100415.33;107698;1257;73155;-59
2024/03/17 03:51:37;;;;;;;28.50;19.20;;;;;;;6.19;100.00;100414.11;105983;1255;61900;-58
2024/03/17 03:54:06;;;;;;;26.10;18.20;;;;;;;6.17;100.00;100418.24;106113;1253;61276;-57
2024/03/17 03:56:34;;;;;;;25.80;18.50;;;;;;;6.16;100.00;100422.19;106098;1253;76287;-58
2024/03/17 03:59:01;;;;;;;25.50;17.90;;;;;;;6.14;100.00;100419.54;106003;1260;67017;-59
2024/03/17 04:01:28;;;;;;;24.30;17.80;;;;;;;6.13;100.00;100415.98;105979;1259;72737;-59
2024/03/17 04:03:55;;;;;;;22.50;17.00;;;;;;;6.14;100.00;100412.59;106080;1257;61497;-59
2024/03/17 04:06:22;;;;;;;24.30;17.40;;;;;;;6.15;100.00;100416.33;106082;1258;61638;-60
2024/03/17 04:08:50;;;;;;;22.30;16.30;;;;;;;6.15;100.00;100418.27;106075;1257;74705;-59
2024/03/17 04:11:17;;;;;;;22.80;17.20;;;;;;;6.15;100.00;100410.09;106120;1252;66183;-58
2024/03/17 04:13:44;;;;;;;26.10;16.60;;;;;;;6.14;100.00;100411.34;106206;1257;72701;-59
2024/03/17 04:16:12;;;;;;;27.40;17.80;;;;;;;6.14;100.00;100411.52;106190;1257;63155;-59
2024/03/17 04:18:40;;;;;;;22.40;17.20;;;;;;;6.13;100.00;100411.00;106102;1257;61029;-59
2024/03/17 04:21:07;;;;;;;26.70;17.20;;;;;;;6.12;100.00;100409.08;106094;1254;74587;-58
2024/03/17 04:23:34;;;;;;;22.50;16.30;;;;;;;6.11;100.00;100412.48;106035;1257;67110;-60
2024/03/17 04:26:03;;;;;;;21.10;15.60;;;;;;;6.10;100.00;100416.44;106024;1255;72721;-59
2024/03/17 04:28:30;;;;;;;22.70;16.70;;;;;;;6.08;100.00;100412.89;107166;1257;61347;-59
2024/03/17 04:31:06;;;;;;;21.10;16.50;;;;;;;6.07;100.00;100411.48;106081;1254;61576;-59
2024/03/17 04:33:34;;;;;;;22.20;16.10;;;;;;;6.07;100.00;100413.98;106303;1255;73222;-59
2024/03/17 04:36:02;;;;;;;22.40;15.90;;;;;;;6.07;100.00;100415.94;106008;1257;67667;-57
2024/03/17 04:38:29;;;;;;;21.90;15.30;;;;;;;6.07;100.00;100413.44;106210;1258;71449;-58
2024/03/17 04:41:04;;;;;;;20.20;15.20;;;;;;;6.07;100.00;100413.80;106067;1257;62265;-58
2024/03/17 04:43:32;;;;;;;;;;;;;;;6.06;100.00;100411.67;106100;1257;61446;-58
2024/03/17 04:46:04;;;;;;;26.00;17.00;;;;;;;6.04;100.00;100406.39;106107;1258;73536;-58
2024/03/17 04:48:32;;;;;;;23.30;17.10;;;;;;;6.01;100.00;100405.38;106319;1253;67033;-58
2024/03/17 04:51:00;;;;;;;24.10;16.70;;;;;;;5.98;100.00;100407.02;106286;1257;72592;-58
2024/03/17 04:53:27;;;;;;;21.00;16.10;;;;;;;5.95;100.00;100400.69;106196;1257;61233;-57
2024/03/17 04:56:13;;;;;;;22.30;15.00;;;;;;;5.93;100.00;100400.00;106297;1253;62196;-58
2024/03/17 04:58:40;;;;;;;23.20;16.10;;;;;;;5.91;100.00;100397.36;106024;1258;73450;-59
2024/03/17 05:01:08;;;;;;;20.60;15.30;;;;;;;5.93;100.00;100395.20;106106;1269;67265;-59
2024/03/17 05:03:35;;;;;;;18.90;13.60;;;;;;;5.96;100.00;100396.02;107586;1253;70863;-58
2024/03/17 05:06:03;;;;;;;21.40;15.10;;;;;;;6.02;100.00;100391.63;106025;1269;61241;-59
2024/03/17 05:08:34;;;;;;;22.50;15.30;;;;;;;6.10;100.00;100391.66;105980;1260;61299;-58
2024/03/17 05:11:05;;;;;;;21.10;15.60;;;;;;;6.18;100.00;100394.71;106117;1253;74618;-59
2024/03/17 05:13:33;;;;;;;21.60;15.00;;;;;;;6.23;100.00;100388.70;106077;1257;68300;-59
2024/03/17 05:16:00;;;;;;;21.60;15.60;;;;;;;6.26;100.00;100393.11;106185;1259;71946;-59
2024/03/17 05:18:28;;;;;;;21.20;16.80;;;;;;;6.29;100.00;100396.80;106198;1257;61717;-58
2024/03/17 05:21:03;;;;;;;23.90;15.80;;;;;;;6.30;100.00;100398.19;106734;1257;64554;-57
2024/03/17 05:23:31;;;;;;;25.10;17.10;;;;;;;6.31;100.00;100406.36;106250;1257;74699;-57
2024/03/17 05:25:59;;;;;;;22.50;17.10;;;;;;;6.30;100.00;100406.73;106134;1257;65690;-59
2024/03/17 05:28:29;;;;;;;23.10;17.30;;;;;;;6.29;100.00;100413.55;106092;1257;72739;-57
2024/03/17 05:30:57;;;;;;;30.30;19.50;;;;;;;6.26;100.00;100416.11;106087;1257;61090;-59
2024/03/17 05:33:25;;;;;;;24.30;17.30;;;;;;;6.23;100.00;100417.95;106280;1253;61115;-58
2024/03/17 05:35:57;;;;;;;22.40;15.90;;;;;;;6.22;100.00;100418.15;106119;1257;74983;-58
2024/03/17 05:38:27;;;;;;;21.00;16.10;;;;;;;6.20;100.00;100422.48;106290;1257;65531;-57
2024/03/17 05:41:02;;;;;;;20.00;14.40;;;;;;;6.17;100.00;100422.52;106081;1253;71493;-59
2024/03/17 05:43:38;;;;;;;21.30;15.70;;;;;;;6.13;100.00;100421.02;106027;1257;61398;-58
2024/03/17 05:46:06;;;;;;;19.40;15.30;;;;;;;6.11;100.00;100419.81;106318;1253;61633;-57
2024/03/17 05:48:38;;;;;;;17.70;15.00;;;;;;;6.10;100.00;100421.08;106047;1253;74729;-60
2024/03/17 05:51:06;;;;;;;15.90;12.70;;;;;;;6.08;100.00;100420.55;106227;1257;67268;-58
2024/03/17 05:53:33;;;;;;;14.30;12.70;;;;;;;6.07;100.00;100418.61;106741;1254;71856;-59
2024/03/17 05:56:01;;;;;;;13.10;10.60;;;;;;;6.04;100.00;100417.95;106178;1257;61744;-59
2024/03/17 05:58:29;;;;;;;11.00;9.50;;;;;;;6.01;100.00;100420.34;106425;1256;61913;-58
2024/03/17 06:00:58;;;;;;;12.10;9.90;;;;;;;5.98;100.00;100422.16;106242;1257;73436;-59
2024/03/17 06:03:25;;;;;;;11.70;9.40;;;;;;;5.98;100.00;100417.17;107196;1256;65954;-58
2024/03/17 06:05:53;;;;;;;11.60;9.90;;;;;;;5.97;100.00;100416.65;106179;1257;71418;-58
2024/03/17 06:08:21;;;;;;;12.80;10.90;;;;;;;5.96;100.00;100415.45;106179;1253;61768;-59
2024/03/17 06:10:48;;;;;;;11.00;9.80;;;;;;;5.96;100.00;100415.44;106119;1265;61311;-58
2024/03/17 06:13:16;;;;;;;10.40;8.40;;;;;;;5.96;100.00;100419.02;106048;1254;75704;-58
2024/03/17 06:15:44;;;;;;;10.60;8.50;;;;;;;5.95;100.00;100417.78;106566;1253;65375;-58
2024/03/17 06:18:13;;;;;;;9.90;7.20;;;;;;;5.94;100.00;100419.05;106058;1257;71092;-58
2024/03/17 06:20:44;;;;;;;8.80;7.70;;;;;;;5.93;100.00;100419.78;106139;1258;62252;-57
2024/03/17 06:23:12;;;;;;;9.10;8.00;;;;;;;5.92;100.00;100418.38;106119;1252;61070;-57
2024/03/17 06:25:48;;;;;;;9.40;7.40;;;;;;;5.92;100.00;100424.44;107132;1257;74720;-58
2024/03/17 06:28:16;;;;;;;10.00;8.70;;;;;;;5.92;100.00;100419.80;105992;1270;67278;-59
2024/03/17 06:30:46;;;;;;;8.90;7.90;;;;;;;5.93;100.00;100421.21;106973;1257;72893;-58
2024/03/17 06:33:15;;;;;;;10.40;8.60;;;;;;;5.94;100.00;100421.38;106901;1256;61264;-59
2024/03/17 06:35:42;;;;;;;12.20;10.20;;;;;;;5.94;100.00;100423.52;109167;1253;59296;-58
2024/03/17 06:38:09;;;;;;;11.90;8.50;;;;;;;5.92;100.00;100427.29;109172;1253;74825;-58
2024/03/17 06:40:38;;;;;;;12.70;10.10;;;;;;;5.91;100.00;100422.13;109136;1252;67203;-59
2024/03/17 06:43:05;;;;;;;12.10;10.00;;;;;;;5.90;100.00;100423.56;109037;1253;71963;-57
2024/03/17 06:45:32;;;;;;;11.20;8.90;;;;;;;5.89;100.00;100421.63;109073;1253;61802;-59
2024/03/17 06:47:59;;;;;;;15.10;10.50;;;;;;;5.90;100.00;100421.96;109236;1253;59971;-59
2024/03/17 06:50:27;;;;;;;14.90;10.80;;;;;;;5.93;100.00;100421.58;107879;1254;73650;-58
2024/03/17 06:52:54;;;;;;;13.80;9.70;;;;;;;5.94;100.00;100419.41;106128;1257;66942;-58
2024/03/17 06:55:21;;;;;;;16.00;11.60;;;;;;;5.97;100.00;100418.64;106083;1258;73232;-58
2024/03/17 06:57:48;;;;;;;11.20;9.70;;;;;;;6.01;100.00;100419.81;106009;1253;61278;-58
2024/03/17 07:00:17;;;;;;;11.70;8.20;;;;;;;6.04;100.00;100418.33;106078;1257;60969;-57
2024/03/17 07:02:44;;;;;;;10.30;8.40;;;;;;;6.08;100.00;100419.30;109132;1254;73552;-59
2024/03/17 07:05:14;;;;;;;10.90;9.30;;;;;;;6.13;100.00;100421.17;109081;1253;65792;-59
2024/03/17 07:07:41;;;;;;;11.70;8.80;;;;;;;6.19;100.00;100426.23;109102;1253;71788;-59
2024/03/17 07:10:11;;;;;;;12.50;8.70;;;;;;;6.24;100.00;100423.27;107322;1257;61820;-59
2024/03/17 07:12:38;;;;;;;9.40;8.40;;;;;;;6.29;100.00;100426.39;109183;1253;60961;-59
2024/03/17 07:15:06;;;;;;;13.30;9.90;;;;;;;6.33;100.00;100426.13;106444;1253;73172;-58
2024/03/17 07:17:33;;;;;;;12.10;9.60;;;;;;;6.37;100.00;100422.64;106149;1257;67287;-58
2024/03/17 07:20:00;;;;;;;12.10;9.40;;;;;;;6.44;100.00;100425.55;106090;1253;72733;-59
2024/03/17 07:22:28;;;;;;;11.90;9.70;;;;;;;6.50;100.00;100422.20;106356;1254;61542;-58
2024/03/17 07:25:00;;;;;;;15.20;11.80;;;;;;;6.55;100.00;100424.06;106389;1257;61278;-58
2024/03/17 07:27:28;;;;;;;15.90;11.20;;;;;;;6.56;100.00;100419.55;106107;1251;74764;-57
2024/03/17 07:29:55;;;;;;;13.70;10.10;;;;;;;6.57;100.00;100417.77;106190;1257;65646;-57
2024/03/17 07:32:25;;;;;;;13.10;10.70;;;;;;;6.56;100.00;100420.30;106193;1269;72545;-58
2024/03/17 07:34:52;;;;;;;14.00;11.20;;;;;;;6.54;100.00;100416.59;106098;1257;61797;-58
2024/03/17 07:37:19;;;;;;;11.20;8.90;;;;;;;6.54;100.00;100416.78;106250;1258;61222;-57
2024/03/17 07:39:49;;;;;;;11.70;10.00;;;;;;;6.55;100.00;100412.11;106271;1255;74593;-57
2024/03/17 07:42:16;;;;;;;15.80;10.80;;;;;;;6.57;100.00;100414.73;106199;1256;66166;-58
2024/03/17 07:44:44;;;;;;;18.00;11.40;;;;;;;6.60;100.00;100418.05;106191;1251;71778;-58
2024/03/17 07:47:11;;;;;;;14.30;10.30;;;;;;;6.63;100.00;100415.31;106188;1259;61776;-58
2024/03/17 07:49:38;;;;;;;15.00;11.10;;;;;;;6.67;100.00;100412.73;106117;1257;61029;-58
2024/03/17 07:52:06;;;;;;;14.30;10.30;;;;;;;6.71;100.00;100409.09;106164;1252;73450;-57
2024/03/17 07:54:35;;;;;;;16.00;11.00;;;;;;;6.72;100.00;100407.10;106211;1267;67153;-57
2024/03/17 07:57:02;;;;;;;14.40;10.00;;;;;;;6.74;100.00;100405.44;106110;1256;72279;-57
2024/03/17 07:59:29;;;;;;;12.70;11.00;;;;;;;6.76;100.00;100408.07;106225;1257;61112;-58
2024/03/17 08:01:57;;;;;;;15.50;10.70;;;;;;;6.77;100.00;100406.09;106186;1258;60546;-58
2024/03/17 08:04:24;;;;;;;14.60;11.40;;;;;;;6.79;100.00;100408.55;106209;1251;73423;-60
2024/03/17 08:06:52;;;;;;;17.60;12.50;;;;;;;6.81;100.00;100401.70;106130;1257;66940;-58
2024/03/17 08:09:19;;;;;;;13.50;10.20;;;;;;;6.83;100.00;100398.09;106067;1257;72715;-59
2024/03/17 08:11:46;;;;;;;18.20;12.40;;;;;;;6.87;100.00;100398.75;106055;1253;61254;-58
2024/03/17 08:14:15;;;;;;;15.30;11.90;;;;;;;6.89;100.00;100396.72;106937;1257;61314;-59
2024/03/17 08:16:43;;;;;;;15.80;11.70;;;;;;;6.93;100.00;100397.35;106468;1253;73633;-58
2024/03/17 08:19:10;;;;;;;14.80;11.20;;;;;;;6.97;100.00;100396.73;106179;1255;65651;-58
2024/03/17 08:21:37;;;;;;;15.10;10.80;;;;;;;7.01;100.00;100395.91;106224;1257;71595;-59
2024/03/17 08:24:04;;;;;;;14.10;10.40;;;;;;;7.03;100.00;100395.85;106192;1267;61303;-59
2024/03/17 08:26:32;;;;;;;18.30;11.50;;;;;;;7.05;100.00;100395.12;106209;1263;61247;-58
2024/03/17 08:28:59;;;;;;;17.00;11.90;;;;;;;7.06;100.00;100392.39;106260;1257;73504;-58
2024/03/17 08:31:26;;;;;;;13.40;9.50;;;;;;;7.08;100.00;100394.30;106276;1253;67057;-59
2024/03/17 08:33:53;;;;;;;15.00;10.80;;;;;;;7.12;100.00;100395.11;106197;1257;71494;-57
2024/03/17 08:36:21;;;;;;;14.10;10.50;;;;;;;7.15;100.00;100391.98;106172;1256;61773;-57
2024/03/17 08:38:48;;;;;;;12.80;10.30;;;;;;;7.19;100.00;100396.02;106248;1251;65666;-57
2024/03/17 08:41:16;;;;;;;12.60;10.50;;;;;;;7.22;100.00;100398.95;106114;1259;75199;-58
2024/03/17 08:43:43;;;;;;;13.70;10.60;;;;;;;7.25;100.00;100402.45;106198;1261;66469;-58
2024/03/17 08:46:11;;;;;;;13.40;11.20;;;;;;;7.30;100.00;100407.71;106149;1259;71817;-58
2024/03/17 08:48:39;;;;;;;15.50;11.30;;;;;;;7.32;100.00;100402.98;106002;1260;61344;-58
2024/03/17 08:51:07;;;;;;;15.70;12.50;;;;;;;7.35;100.00;100407.39;106123;1257;61303;-58
2024/03/17 08:53:34;;;;;;;17.40;11.90;;;;;;;7.36;100.00;100405.05;106512;1253;75097;-58
2024/03/17 08:56:03;;;;;;;18.90;13.70;;;;;;;7.37;100.00;100396.82;106133;1257;69023;-58
2024/03/17 08:58:30;;;;;;;20.50;13.10;;;;;;;7.38;100.00;100392.69;106094;1256;71610;-58
2024/03/17 09:00:57;;;;;;;24.50;14.90;;;;;;;7.40;100.00;100392.99;106319;1251;61877;-59
2024/03/17 09:03:26;;;;;;;25.30;15.10;;;;;;;7.42;100.00;100392.73;106193;1258;61700;-59
2024/03/17 09:05:54;;;;;;;25.80;16.60;;;;;;;7.46;100.00;100391.77;106594;1254;73690;-57
2024/03/17 09:08:23;;;;;;;25.20;16.50;;;;;;;7.50;100.00;100387.36;106405;1253;67374;-59
2024/03/17 09:10:52;;;;;;;24.80;14.80;;;;;;;7.53;100.00;100379.27;106563;1258;71207;-55
2024/03/17 09:13:21;;;;;;;24.60;15.40;;;;;;;7.58;100.00;100379.47;106137;1256;61333;-58
2024/03/17 09:15:53;;;;;;;21.20;14.10;;;;;;;7.62;100.00;100378.84;106260;1257;61235;-60
2024/03/17 09:18:21;;;;;;;22.20;13.40;;;;;;;7.66;100.00;100378.73;106303;1252;75025;-58
2024/03/17 09:20:58;;;;;;;16.80;12.30;;;;;;;7.70;100.00;100375.95;106261;1256;66262;-58
2024/03/17 09:23:26;;;;;;;13.40;10.30;;;;;;;7.74;100.00;100376.55;106157;1250;74792;-58
2024/03/17 09:25:58;;;;;;;13.60;9.80;;;;;;;7.79;100.00;100372.84;106060;1257;61312;-59
2024/03/17 09:28:25;;;;;;;16.30;11.20;;;;;;;7.84;100.00;100371.80;109091;1251;62200;-58
2024/03/17 09:30:52;;;;;;;12.70;10.50;;;;;;;7.91;100.00;100368.59;108712;1255;74859;-59
2024/03/17 09:33:20;;;;;;;12.40;9.70;;;;;;;7.97;100.00;100372.69;106246;1253;66861;-58
2024/03/17 09:35:54;;;;;;;17.30;12.00;;;;;;;8.04;100.00;100375.55;109122;1251;72646;-58
2024/03/17 09:38:21;;;;;;;17.20;12.50;;;;;;;8.09;100.00;100375.59;109249;1253;60149;-58
2024/03/17 09:40:51;;;;;;;17.20;12.10;;;;;;;8.14;100.00;100377.23;108910;1251;247121;-58
2024/03/17 09:44:15;;;;;;;17.30;12.30;;;;;;;8.20;100.00;100399.93;102951;1297;600999;-55
2024/03/17 09:46:42;;;;;;;17.00;13.40;;;;;;;8.19;100.00;100413.89;107892;1269;61786;-58
2024/03/17 09:49:15;;;;;;;17.10;13.20;;;;;;;8.21;100.00;100415.09;108157;1269;58823;-58
2024/03/17 09:51:43;;;;;;;19.00;13.00;;;;;;;8.24;100.00;100413.79;105323;1270;73092;-57
2024/03/17 09:54:17;;;;;;;16.30;11.80;;;;;;;8.25;100.00;100413.73;105103;1273;67078;-58
2024/03/17 09:56:45;;;;;;;;;;;;;;;8.26;100.00;100407.96;107946;1269;233687;-58
2024/03/17 09:59:12;;;;;;;12.20;10.30;;;;;;;8.26;100.00;100400.98;108272;1267;62252;-58
2024/03/17 10:01:39;;;;;;;14.60;11.20;;;;;;;8.27;100.00;100400.27;108238;1266;60906;-58
2024/03/17 10:04:10;;;;;;;16.30;11.90;;;;;;;8.27;100.00;100399.90;108399;1266;75107;-57
2024/03/17 10:06:46;;;;;;;15.40;11.70;;;;;;;8.28;100.00;100398.09;105435;1269;65890;-58
2024/03/17 10:09:20;;;;;;;15.40;11.90;;;;;;;8.29;100.00;100396.45;105439;1273;73422;-58
2024/03/17 10:11:48;;;;;;;14.30;11.60;;;;;;;8.29;100.00;100394.66;107987;1267;61302;-57
2024/03/17 10:14:16;;;;;;;16.20;12.90;;;;;;;8.29;100.00;100393.41;106556;1267;60576;-57
2024/03/17 10:16:46;;;;;;;13.50;11.30;;;;;;;8.29;100.00;100388.77;105289;1270;75723;-58
2024/03/17 10:19:16;;;;;;;17.30;11.50;;;;;;;8.29;100.00;100390.19;105792;1267;68188;-57
2024/03/17 10:21:44;;;;;;;14.30;11.10;;;;;;;8.32;100.00;100391.94;105256;1272;75428;-58
2024/03/17 10:24:25;;;;;;;15.60;12.20;;;;;;;8.33;100.00;100389.92;105263;1271;60564;-57
2024/03/17 10:26:55;;;;;;;13.80;10.60;;;;;;;8.34;100.00;100387.58;105311;1273;60499;-58
2024/03/17 10:29:31;;;;;;;17.10;12.90;;;;;;;8.33;100.00;100387.45;108245;1267;73879;-57
2024/03/17 10:32:01;;;;;;;19.20;14.40;;;;;;;8.32;100.00;100384.08;106644;1257;68949;-58
2024/03/17 10:34:34;;;;;;;16.60;12.50;;;;;;;8.31;100.00;100384.80;106132;1259;73264;-58
2024/03/17 10:37:11;;;;;;;20.40;14.50;;;;;;;8.33;100.00;100379.59;106147;1261;62649;-57
2024/03/17 10:39:39;;;;;;;15.10;12.60;;;;;;;8.34;100.00;100379.34;106423;1259;62311;-57
2024/03/17 10:42:07;;;;;;;14.60;12.50;;;;;;;8.37;100.00;100383.38;106388;1256;78163;-57
2024/03/17 10:44:36;;;;;;;16.20;13.00;;;;;;;8.41;100.00;100379.88;107875;1256;66418;-59
2024/03/17 10:47:09;;;;;;;17.70;12.90;;;;;;;8.46;100.00;100382.22;106021;1263;72465;-59
2024/03/17 10:49:37;;;;;;;16.20;12.70;;;;;;;8.53;100.00;100378.27;106347;1256;60253;-58
2024/03/17 10:52:15;;;;;;;17.00;13.30;;;;;;;8.59;100.00;100378.98;107344;1256;59203;-58
2024/03/17 10:54:47;;;;;;;15.10;12.40;;;;;;;8.64;100.00;100382.58;106098;1259;74325;-57
2024/03/17 10:57:35;;;;;;;15.80;14.00;;;;;;;8.68;100.00;100383.90;106114;1256;66972;-58
2024/03/17 11:00:05;;;;;;;14.80;11.40;;;;;;;8.69;100.00;100377.94;105892;1257;73481;-58
2024/03/17 11:02:32;;;;;;;14.50;12.20;;;;;;;8.69;100.00;100379.35;106111;1259;63018;-58
2024/03/17 11:05:00;;;;;;;17.50;13.20;;;;;;;8.70;100.00;100377.19;105975;1260;60807;-58
2024/03/17 11:07:28;;;;;;;17.30;13.30;;;;;;;8.73;100.00;100372.82;106127;1260;74425;-57
2024/03/17 11:09:55;;;;;;;14.90;12.40;;;;;;;8.77;100.00;100369.46;105906;1272;67053;-57